createdAt,value
2022-08-02T00:00:41.006Z,19.70
2022-08-02T00:03:10.131Z,19.64
2022-08-02T00:05:38.059Z,19.60
2022-08-02T00:08:08.338Z,19.57
2022-08-02T00:10:36.219Z,19.54
2022-08-02T00:13:04.496Z,19.52
2022-08-02T00:15:32.392Z,19.51
2022-08-02T00:18:00.335Z,19.48
2022-08-02T00:20:28.319Z,19.46
2022-08-02T00:22:56.399Z,19.44
2022-08-02T00:25:24.612Z,19.43
2022-08-02T00:27:52.526Z,19.42
2022-08-02T00:30:20.612Z,19.41
2022-08-02T00:32:48.686Z,19.42
2022-08-02T00:35:16.853Z,19.42
2022-08-02T00:37:45.243Z,19.42
2022-08-02T00:40:13.571Z,19.41
2022-08-02T00:42:41.725Z,19.39
2022-08-02T00:45:10.371Z,19.35
2022-08-02T00:47:38.758Z,19.33
2022-08-02T00:50:06.850Z,19.33
2022-08-02T00:52:34.921Z,19.34
2022-08-02T00:55:02.999Z,19.31
2022-08-02T00:57:31.263Z,19.27
2022-08-02T00:59:59.275Z,19.25
2022-08-02T01:02:27.266Z,19.24
2022-08-02T01:04:55.270Z,19.21
2022-08-02T01:07:23.439Z,19.18
2022-08-02T01:09:51.671Z,19.16
2022-08-02T01:12:19.743Z,19.14
2022-08-02T01:14:51.043Z,19.08
2022-08-02T01:17:44.864Z,19.03
2022-08-02T01:20:41.985Z,19.00
2022-08-02T01:23:28.068Z,19.03
2022-08-02T01:26:28.066Z,19.04
2022-08-02T01:29:08.946Z,19.02
2022-08-02T01:32:00.145Z,19.02
2022-08-02T01:34:42.785Z,18.99
2022-08-02T01:37:20.467Z,18.98
2022-08-02T01:39:54.782Z,18.98
2022-08-02T01:42:26.385Z,18.98
2022-08-02T01:44:56.951Z,18.97
2022-08-02T01:47:29.424Z,18.95
2022-08-02T01:50:00.077Z,18.95
2022-08-02T01:52:34.390Z,18.94
2022-08-02T01:55:18.771Z,18.92
2022-08-02T01:57:50.975Z,18.92
2022-08-02T02:00:22.136Z,18.92
2022-08-02T02:02:53.345Z,18.90
2022-08-02T02:05:25.497Z,18.88
2022-08-02T02:07:57.308Z,18.87
2022-08-02T02:10:33.264Z,18.85
2022-08-02T02:13:15.409Z,18.83
2022-08-02T02:15:48.612Z,18.81
2022-08-02T02:18:23.628Z,18.80
2022-08-02T02:20:53.263Z,18.79
2022-08-02T02:23:21.386Z,18.77
2022-08-02T02:25:55.674Z,18.74
2022-08-02T02:28:30.675Z,18.73
2022-08-02T02:31:06.694Z,18.73
2022-08-02T02:33:44.962Z,18.75
2022-08-02T02:36:23.578Z,18.74
2022-08-02T02:38:53.982Z,18.73
2022-08-02T02:41:25.109Z,18.73
2022-08-02T02:44:02.091Z,18.72
2022-08-02T02:46:31.520Z,18.70
2022-08-02T02:49:01.940Z,18.67
2022-08-02T02:51:31.771Z,18.65
2022-08-02T02:54:32.327Z,18.62
2022-08-02T02:56:50.121Z,18.55
2022-08-02T02:59:19.481Z,18.49
2022-08-02T03:01:57.256Z,18.42
2022-08-02T03:04:56.172Z,18.35
2022-08-02T03:07:17.894Z,18.29
2022-08-02T03:09:47.292Z,18.23
2022-08-02T03:12:31.953Z,18.18
2022-08-02T03:15:05.219Z,18.13
2022-08-02T03:17:41.330Z,18.05
2022-08-02T03:20:12.479Z,17.97
2022-08-02T03:22:41.109Z,17.91
2022-08-02T03:25:10.598Z,17.85
2022-08-02T03:27:39.202Z,17.83
2022-08-02T03:30:10.315Z,17.81
2022-08-02T03:32:40.944Z,17.79
2022-08-02T03:35:12.946Z,17.78
2022-08-02T03:37:41.910Z,17.78
2022-08-02T03:40:11.986Z,17.80
2022-08-02T03:42:41.495Z,17.83
2022-08-02T03:45:11.656Z,17.84
2022-08-02T03:47:40.861Z,17.86
2022-08-02T03:50:15.078Z,17.89
2022-08-02T03:52:45.089Z,17.92
2022-08-02T03:55:13.998Z,17.96
2022-08-02T03:57:43.442Z,17.98
2022-08-02T04:00:18.718Z,18.02
2022-08-02T04:02:48.112Z,18.09
2022-08-02T04:05:16.725Z,18.15
2022-08-02T04:08:33.337Z,18.20
2022-08-02T04:10:53.993Z,18.27
2022-08-02T04:13:28.606Z,18.35
2022-08-02T04:16:08.771Z,18.43
2022-08-02T04:18:43.486Z,18.49
2022-08-02T04:21:15.819Z,18.57
2022-08-02T04:23:46.209Z,18.65
2022-08-02T04:26:14.387Z,18.70
2022-08-02T04:28:44.305Z,18.76
2022-08-02T04:31:13.106Z,18.84
2022-08-02T04:33:41.829Z,18.91
2022-08-02T04:39:03.339Z,19.07
2022-08-02T04:41:43.889Z,19.13
2022-08-02T04:44:13.178Z,19.21
2022-08-02T04:46:42.466Z,19.27
2022-08-02T04:49:10.881Z,19.35
2022-08-02T04:51:40.950Z,19.39
2022-08-02T04:54:10.650Z,19.44
2022-08-02T04:56:40.396Z,19.48
2022-08-02T04:59:08.798Z,19.55
2022-08-02T05:01:36.950Z,19.60
2022-08-02T05:04:06.632Z,19.66
2022-08-02T05:06:34.498Z,19.73
2022-08-02T05:09:02.639Z,19.77
2022-08-02T05:11:36.272Z,19.82
2022-08-02T05:14:06.067Z,19.88
2022-08-02T05:16:34.222Z,19.96
2022-08-02T05:19:02.913Z,20.05
2022-08-02T05:21:32.157Z,20.14
2022-08-02T05:24:00.363Z,20.25
2022-08-02T05:26:28.455Z,20.36
2022-08-02T05:28:56.615Z,20.45
2022-08-02T05:31:24.685Z,20.55
2022-08-02T05:33:52.612Z,20.67
2022-08-02T05:36:21.620Z,20.82
2022-08-02T05:39:04.827Z,20.99
2022-08-02T05:41:33.665Z,21.19
2022-08-02T05:44:02.211Z,21.35
2022-08-02T05:46:30.379Z,21.55
2022-08-02T05:48:58.444Z,21.88
2022-08-02T05:51:45.323Z,22.53
2022-08-02T05:54:22.602Z,23.65
2022-08-02T05:57:02.337Z,24.68
2022-08-02T05:59:47.800Z,25.40
2022-08-02T06:02:36.693Z,25.97
2022-08-02T06:05:19.926Z,26.35
2022-08-02T06:07:57.425Z,26.58
2022-08-02T06:10:28.024Z,26.67
2022-08-02T06:13:17.178Z,26.72
2022-08-02T06:15:53.408Z,26.58
2022-08-02T06:18:27.785Z,26.52
2022-08-02T06:22:31.471Z,26.35
2022-08-02T06:23:58.089Z,26.47
2022-08-02T06:26:28.343Z,26.77
2022-08-02T06:28:58.679Z,27.00
2022-08-02T06:31:26.865Z,26.89
2022-08-02T06:33:55.579Z,26.96
2022-08-02T06:36:39.238Z,27.04
2022-08-02T06:39:30.525Z,27.40
2022-08-02T06:42:02.526Z,27.83
2022-08-02T06:44:49.726Z,28.34
2022-08-02T06:47:19.210Z,28.98
2022-08-02T06:49:51.831Z,29.33
2022-08-02T06:52:28.330Z,29.67
2022-08-02T06:55:01.902Z,29.75
2022-08-02T06:57:31.155Z,29.81
2022-08-02T07:00:02.567Z,29.88
2022-08-02T07:02:31.773Z,29.82
2022-08-02T07:05:00.157Z,29.84
2022-08-02T07:07:28.458Z,29.78
2022-08-02T07:10:01.154Z,29.78
2022-08-02T07:12:32.084Z,29.67
2022-08-02T07:15:02.598Z,29.72
2022-08-02T07:17:31.542Z,29.83
2022-08-02T07:20:00.906Z,29.95
2022-08-02T07:22:29.804Z,30.11
2022-08-02T07:25:00.160Z,30.26
2022-08-02T07:27:29.245Z,30.40
2022-08-02T07:29:57.929Z,30.54
2022-08-02T07:32:29.918Z,30.77
2022-08-02T07:34:59.545Z,31.06
2022-08-02T07:37:35.183Z,31.18
2022-08-02T07:40:22.658Z,31.34
2022-08-02T07:42:56.450Z,31.53
2022-08-02T07:45:28.642Z,31.78
2022-08-02T07:47:57.312Z,32.11
2022-08-02T07:50:25.585Z,32.16
2022-08-02T07:52:57.782Z,32.11
2022-08-02T07:55:39.159Z,31.87
2022-08-02T07:58:12.772Z,31.32
2022-08-02T08:00:44.262Z,31.28
2022-08-02T08:03:12.741Z,31.74
2022-08-02T08:05:41.901Z,32.30
2022-08-02T08:08:15.293Z,32.70
2022-08-02T08:10:46.237Z,32.92
2022-08-02T08:13:14.799Z,33.06
2022-08-02T08:15:50.035Z,33.03
2022-08-02T08:18:23.312Z,32.85
2022-08-02T08:20:53.731Z,32.53
2022-08-02T08:23:22.516Z,32.18
2022-08-02T08:25:50.902Z,31.50
2022-08-02T08:28:19.025Z,31.52
2022-08-02T08:30:47.776Z,31.90
2022-08-02T08:33:16.386Z,32.42
2022-08-02T08:35:44.571Z,32.92
2022-08-02T08:38:12.811Z,33.47
2022-08-02T08:40:42.326Z,34.02
2022-08-02T08:43:14.175Z,34.32
2022-08-02T08:45:46.646Z,34.58
2022-08-02T08:48:31.070Z,34.96
2022-08-02T08:51:02.590Z,35.19
2022-08-02T08:53:36.075Z,35.33
2022-08-02T08:56:05.905Z,35.45
2022-08-02T08:58:33.961Z,35.62
2022-08-02T09:01:02.337Z,35.78
2022-08-02T09:03:33.911Z,36.04
2022-08-02T09:06:03.445Z,36.27
2022-08-02T09:08:33.394Z,36.52
2022-08-02T09:11:01.901Z,36.67
2022-08-02T09:13:45.082Z,36.82
2022-08-02T09:16:14.945Z,36.99
2022-08-02T09:18:46.405Z,37.21
2022-08-02T09:21:18.012Z,37.39
2022-08-02T09:23:48.985Z,37.65
2022-08-02T09:26:23.024Z,37.89
2022-08-02T09:28:53.317Z,38.12
2022-08-02T09:31:23.504Z,38.45
2022-08-02T09:33:55.244Z,38.34
2022-08-02T09:36:24.774Z,37.91
2022-08-02T09:38:58.838Z,37.08
2022-08-02T09:41:29.007Z,36.27
2022-08-02T09:44:04.659Z,35.94
2022-08-02T09:46:39.973Z,35.41
2022-08-02T09:49:13.502Z,35.61
2022-08-02T09:51:50.986Z,36.26
2022-08-02T09:54:21.644Z,36.91
2022-08-02T09:56:52.700Z,37.49
2022-08-02T09:59:22.525Z,37.97
2022-08-02T10:02:01.554Z,37.85
2022-08-02T10:04:52.515Z,37.50
2022-08-02T10:07:23.746Z,36.58
2022-08-02T10:09:52.611Z,35.48
2022-08-02T10:12:23.282Z,34.99
2022-08-02T10:14:52.610Z,35.29
2022-08-02T10:17:21.406Z,35.16
2022-08-02T10:20:01.174Z,34.57
2022-08-02T10:22:34.708Z,33.99
2022-08-02T10:25:05.177Z,33.64
2022-08-02T10:28:02.432Z,33.30
2022-08-02T10:30:27.338Z,32.91
2022-08-02T10:32:58.140Z,32.56
2022-08-02T10:35:27.075Z,32.35
2022-08-02T10:38:01.882Z,32.91
2022-08-02T10:40:56.215Z,33.72
2022-08-02T10:43:33.175Z,33.68
2022-08-02T10:46:33.801Z,34.27
2022-08-02T10:52:07.165Z,36.95
2022-08-02T10:54:41.166Z,37.98
2022-08-02T10:57:21.412Z,38.91
2022-08-02T10:59:52.698Z,39.33
2022-08-02T11:02:33.769Z,39.95
2022-08-02T11:05:05.116Z,40.49
2022-08-02T11:07:37.019Z,40.72
2022-08-02T11:10:26.931Z,41.22
2022-08-02T11:13:11.838Z,41.74
2022-08-02T11:15:53.880Z,42.15
2022-08-02T11:18:23.950Z,42.59
2022-08-02T11:21:36.599Z,42.54
2022-08-02T11:24:28.945Z,42.86
2022-08-02T11:26:59.034Z,43.10
2022-08-02T11:29:41.603Z,42.94
2022-08-02T11:32:17.300Z,42.70
2022-08-02T11:34:48.037Z,41.57
2022-08-02T11:37:33.084Z,41.63
2022-08-02T11:40:01.078Z,42.17
2022-08-02T11:42:36.422Z,42.68
2022-08-02T11:45:06.689Z,42.65
2022-08-02T11:47:52.416Z,42.09
2022-08-02T11:50:29.836Z,41.10
2022-08-02T11:52:58.413Z,39.95
2022-08-02T11:55:31.681Z,38.92
2022-08-02T11:58:05.626Z,37.95
2022-08-02T12:00:34.521Z,37.20
2022-08-02T12:03:02.447Z,36.51
2022-08-02T12:06:04.808Z,35.89
2022-08-02T12:08:25.424Z,35.41
2022-08-02T12:10:53.756Z,35.30
2022-08-02T12:13:21.745Z,35.42
2022-08-02T12:15:49.824Z,35.26
2022-08-02T12:18:41.444Z,34.79
2022-08-02T12:21:26.372Z,34.35
2022-08-02T12:23:58.803Z,34.34
2022-08-02T12:26:41.055Z,34.90
2022-08-02T12:29:09.526Z,36.05
2022-08-02T12:31:57.572Z,37.31
2022-08-02T12:34:31.932Z,38.44
2022-08-02T12:37:08.441Z,39.20
2022-08-02T12:39:47.261Z,38.94
2022-08-02T12:42:16.495Z,38.49
2022-08-02T12:44:59.382Z,38.37
2022-08-02T12:47:35.485Z,38.65
2022-08-02T12:50:26.798Z,38.73
2022-08-02T12:53:05.481Z,38.92
2022-08-02T12:56:01.955Z,39.24
2022-08-02T12:58:27.044Z,39.44
2022-08-02T13:00:58.436Z,39.66
2022-08-02T13:04:09.182Z,39.36
2022-08-02T13:06:42.275Z,38.77
2022-08-02T13:09:12.834Z,38.59
2022-08-02T13:11:42.921Z,39.09
2022-08-02T13:14:12.857Z,39.74
2022-08-02T13:16:44.271Z,40.23
2022-08-02T13:19:13.676Z,40.49
2022-08-02T13:22:01.154Z,40.64
2022-08-02T13:24:39.657Z,40.76
2022-08-02T13:27:21.015Z,39.97
2022-08-02T13:29:54.057Z,39.17
2022-08-02T13:32:22.859Z,38.62
2022-08-02T13:34:51.377Z,37.87
2022-08-02T13:37:19.382Z,37.00
2022-08-02T13:40:05.613Z,36.58
2022-08-02T13:42:35.745Z,37.18
2022-08-02T13:45:12.771Z,37.54
2022-08-02T13:48:04.289Z,37.87
2022-08-02T13:50:32.797Z,37.79
2022-08-02T13:53:00.804Z,37.25
2022-08-02T13:55:28.820Z,37.25
2022-08-02T13:57:57.607Z,37.74
2022-08-02T14:00:34.720Z,38.28
2022-08-02T14:03:06.036Z,38.71
2022-08-02T14:05:48.511Z,39.03
2022-08-02T14:08:18.531Z,39.15
2022-08-02T14:10:48.280Z,38.57
2022-08-02T14:13:17.375Z,37.99
2022-08-02T14:15:46.015Z,37.79
2022-08-02T14:18:15.491Z,37.75
2022-08-02T14:20:46.717Z,37.62
2022-08-02T14:23:14.745Z,37.15
2022-08-02T14:25:43.650Z,36.37
2022-08-02T14:28:11.712Z,35.69
2022-08-02T14:30:39.761Z,35.25
2022-08-02T14:33:08.350Z,34.90
2022-08-02T14:35:36.561Z,34.90
2022-08-02T14:38:04.855Z,35.25
2022-08-02T14:40:33.696Z,35.16
2022-08-02T14:43:02.643Z,34.95
2022-08-02T14:45:40.442Z,34.62
2022-08-02T14:48:12.630Z,34.12
2022-08-02T14:50:40.801Z,33.61
2022-08-02T14:53:12.347Z,33.10
2022-08-02T14:55:43.081Z,32.69
2022-08-02T14:58:12.302Z,32.34
2022-08-02T15:00:41.654Z,32.45
2022-08-02T15:03:12.370Z,33.71
2022-08-02T15:05:42.093Z,35.01
2022-08-02T15:08:10.703Z,35.97
2022-08-02T15:10:39.032Z,36.06
2022-08-02T15:13:07.357Z,35.54
2022-08-02T15:15:43.166Z,34.98
2022-08-02T15:18:13.385Z,34.52
2022-08-02T15:20:45.370Z,34.60
2022-08-02T15:23:37.549Z,34.91
2022-08-02T15:26:07.351Z,34.98
2022-08-02T15:28:35.591Z,35.35
2022-08-02T15:31:03.694Z,35.92
2022-08-02T15:33:31.674Z,36.31
2022-08-02T15:35:59.781Z,35.88
2022-08-02T15:38:27.748Z,35.36
2022-08-02T15:40:55.757Z,34.64
2022-08-02T15:43:23.726Z,33.94
2022-08-02T15:45:51.809Z,33.72
2022-08-02T15:48:27.529Z,34.60
2022-08-02T15:54:09.501Z,35.69
2022-08-02T15:56:37.487Z,35.80
2022-08-02T15:59:05.895Z,35.17
2022-08-02T16:01:38.573Z,35.07
2022-08-02T16:04:08.377Z,35.58
2022-08-02T16:06:37.378Z,35.76
2022-08-02T16:09:05.344Z,35.91
2022-08-02T16:11:33.748Z,35.57
2022-08-02T16:14:01.727Z,35.07
2022-08-02T16:16:32.262Z,34.42
2022-08-02T16:19:46.693Z,33.81
2022-08-02T16:21:48.950Z,33.16
2022-08-02T16:24:17.180Z,32.72
2022-08-02T16:26:45.313Z,32.39
2022-08-02T16:29:13.619Z,32.04
2022-08-02T16:31:47.800Z,31.73
2022-08-02T16:34:16.776Z,31.40
2022-08-02T16:36:45.329Z,31.00
2022-08-02T16:39:13.628Z,30.64
2022-08-02T16:41:52.073Z,30.41
2022-08-02T16:44:27.565Z,30.23
2022-08-02T16:47:00.494Z,30.11
2022-08-02T16:50:04.245Z,29.99
2022-08-02T16:52:19.747Z,29.84
2022-08-02T16:54:49.460Z,29.72
2022-08-02T16:57:19.788Z,29.61
2022-08-02T16:59:57.811Z,29.51
2022-08-02T17:02:28.011Z,29.35
2022-08-02T17:04:56.664Z,29.23
2022-08-02T17:10:13.631Z,28.97
2022-08-02T17:12:51.484Z,28.87
2022-08-02T17:16:01.122Z,28.78
2022-08-02T17:18:08.877Z,28.64
2022-08-02T17:20:37.510Z,28.50
2022-08-02T17:23:05.596Z,28.38
2022-08-02T17:25:37.600Z,28.26
2022-08-02T17:28:10.189Z,28.13
2022-08-02T17:30:38.268Z,28.02
2022-08-02T17:33:06.935Z,27.88
2022-08-02T17:35:43.507Z,27.71
2022-08-02T17:38:26.605Z,27.52
2022-08-02T17:40:56.237Z,27.40
2022-08-02T17:43:29.032Z,27.27
2022-08-02T17:46:00.222Z,27.13
2022-08-02T17:48:59.859Z,26.98
2022-08-02T17:52:15.374Z,26.82
2022-08-02T17:54:18.846Z,26.65
2022-08-02T17:56:48.615Z,26.47
2022-08-02T17:59:31.003Z,26.28
2022-08-02T18:02:11.664Z,26.07
2022-08-02T18:04:39.896Z,25.92
2022-08-02T18:07:10.400Z,25.77
2022-08-02T18:09:39.589Z,25.66
2022-08-02T18:12:14.955Z,25.51
2022-08-02T18:14:48.732Z,25.36
2022-08-02T18:17:17.964Z,25.23
2022-08-02T18:19:57.181Z,25.08
2022-08-02T18:22:34.745Z,24.91
2022-08-02T18:25:09.472Z,24.76
2022-08-02T18:27:39.007Z,24.64
2022-08-02T18:30:09.172Z,24.50
2022-08-02T18:33:57.154Z,24.38
2022-08-02T18:35:29.533Z,24.27
2022-08-02T18:38:03.761Z,24.16
2022-08-02T18:40:32.163Z,24.04
2022-08-02T18:43:00.106Z,23.92
2022-08-02T18:46:04.722Z,23.79
2022-08-02T18:48:19.566Z,23.64
2022-08-02T18:50:47.552Z,23.50
2022-08-02T18:53:28.171Z,23.38
2022-08-02T18:56:05.991Z,23.27
2022-08-02T18:58:37.176Z,23.18
2022-08-02T19:01:21.697Z,23.09
2022-08-02T19:03:56.395Z,22.99
2022-08-02T19:06:27.483Z,22.93
2022-08-02T19:09:12.769Z,22.82
2022-08-02T19:11:50.202Z,22.73
2022-08-02T19:14:27.064Z,22.66
2022-08-02T19:16:58.196Z,22.56
2022-08-02T19:19:28.742Z,22.47
2022-08-02T19:22:26.583Z,22.38
2022-08-02T19:24:52.067Z,22.30
2022-08-02T19:27:25.650Z,22.22
2022-08-02T19:30:08.866Z,22.16
2022-08-02T19:32:41.922Z,22.10
2022-08-02T19:35:30.761Z,22.07
2022-08-02T19:38:13.772Z,22.03
2022-08-02T19:40:44.331Z,22.00
2022-08-02T19:44:27.475Z,21.92
2022-08-02T19:46:02.446Z,21.85
2022-08-02T19:48:30.467Z,21.81
2022-08-02T19:51:01.766Z,21.76
2022-08-02T19:53:47.936Z,21.68
2022-08-02T19:56:25.075Z,21.59
2022-08-02T19:58:57.117Z,21.50
2022-08-02T20:04:23.031Z,21.35
2022-08-02T20:06:52.221Z,21.27
2022-08-02T20:09:23.110Z,21.18
2022-08-02T20:11:54.870Z,21.12
2022-08-02T20:14:27.033Z,21.06
2022-08-02T20:16:58.928Z,21.03
2022-08-02T20:19:29.183Z,20.98
2022-08-02T20:22:09.391Z,20.93
2022-08-02T20:24:37.691Z,20.86
2022-08-02T20:27:06.295Z,20.82
2022-08-02T20:29:43.649Z,20.78
2022-08-02T20:32:22.542Z,20.69
2022-08-02T20:34:52.517Z,20.62
2022-08-02T20:37:59.497Z,20.59
2022-08-02T20:40:16.971Z,20.52
2022-08-02T20:42:47.689Z,20.47
2022-08-02T20:45:20.385Z,20.42
2022-08-02T20:47:52.355Z,20.35
2022-08-02T20:50:41.820Z,20.30
2022-08-02T20:53:23.798Z,20.25
2022-08-02T20:55:56.161Z,20.22
2022-08-02T20:58:26.652Z,20.20
2022-08-02T21:00:59.673Z,20.18
2022-08-02T21:03:38.785Z,20.15
2022-08-02T21:06:09.778Z,20.11
2022-08-02T21:08:39.259Z,20.07
2022-08-02T21:11:09.171Z,20.01
2022-08-02T21:13:46.388Z,19.97
2022-08-02T21:16:20.513Z,19.94
2022-08-02T21:18:51.569Z,19.92
2022-08-02T21:21:19.481Z,19.87
2022-08-02T21:23:48.620Z,19.79
2022-08-02T21:26:25.746Z,19.72
2022-08-02T21:29:00.727Z,19.68
2022-08-02T21:34:27.552Z,19.65
2022-08-02T21:36:56.250Z,19.63
2022-08-02T21:39:24.710Z,19.60
2022-08-02T21:41:53.164Z,19.58
2022-08-02T21:44:23.013Z,19.55
2022-08-02T21:46:54.795Z,19.51
2022-08-02T21:49:27.117Z,19.47
2022-08-02T21:52:09.393Z,19.38
2022-08-02T21:54:39.903Z,19.32
2022-08-02T21:57:15.553Z,19.22
2022-08-02T21:59:52.873Z,19.15
2022-08-02T22:02:30.764Z,19.10
2022-08-02T22:04:59.499Z,19.04
2022-08-02T22:07:38.414Z,19.01
2022-08-02T22:10:09.304Z,18.99
2022-08-02T22:12:37.592Z,18.99
2022-08-02T22:15:10.645Z,18.98
2022-08-02T22:17:53.599Z,18.98
2022-08-02T22:20:29.296Z,18.97
2022-08-02T22:22:57.734Z,18.96
2022-08-02T22:25:31.250Z,18.91
2022-08-02T22:28:35.182Z,18.88
2022-08-02T22:30:59.956Z,18.86
2022-08-02T22:34:00.560Z,18.85
2022-08-02T22:36:31.220Z,18.82
2022-08-02T22:39:00.582Z,18.79
2022-08-02T22:42:00.152Z,18.72
2022-08-02T22:44:18.753Z,18.68
2022-08-02T22:46:50.262Z,18.63
2022-08-02T22:49:38.763Z,18.58
2022-08-02T22:52:07.773Z,18.53
2022-08-02T22:54:36.237Z,18.49
2022-08-02T22:57:06.657Z,18.45
2022-08-02T22:58:36.735Z,29.12
2022-08-02T22:59:02.910Z,19.67
2022-08-02T22:59:07.835Z,21.43
2022-08-02T22:59:40.670Z,18.43
2022-08-02T23:02:10.603Z,18.41
2022-08-02T23:04:39.249Z,18.41
2022-08-02T23:07:07.125Z,18.37
2022-08-02T23:09:35.114Z,18.31
2022-08-02T23:12:03.582Z,18.26
2022-08-02T23:14:31.675Z,18.22
2022-08-02T23:17:18.977Z,18.21
2022-08-02T23:19:53.355Z,18.18
2022-08-02T23:22:29.724Z,18.16
2022-08-02T23:25:01.383Z,18.12
2022-08-02T23:27:30.661Z,18.09
2022-08-02T23:29:59.298Z,18.05
2022-08-02T23:32:28.578Z,18.02
2022-08-02T23:34:57.715Z,17.99
2022-08-02T23:37:26.390Z,17.94
2022-08-02T23:39:54.488Z,17.90
2022-08-02T23:42:25.473Z,17.86
2022-08-02T23:44:53.759Z,17.84
2022-08-02T23:47:21.742Z,17.80
2022-08-02T23:49:50.016Z,17.75
2022-08-02T23:52:18.507Z,17.70
2022-08-02T23:54:47.209Z,17.69
2022-08-02T23:57:20.126Z,17.70
2022-08-02T23:59:52.678Z,17.69
